sensor_id;sensor_type;location;lat;lon;timestamp;pressure;altitude;pressure_sealevel;temperature;humidity
52839;BME280;39219;53.678;9.856;2022-07-23T00:02:25;101610.06;;;14.91;98.31
52839;BME280;39219;53.678;9.856;2022-07-23T00:04:54;101609.28;;;14.87;98.06
52839;BME280;39219;53.678;9.856;2022-07-23T00:07:20;101609.28;;;14.87;97.61
52839;BME280;39219;53.678;9.856;2022-07-23T00:09:47;101609.28;;;14.87;97.92
52839;BME280;39219;53.678;9.856;2022-07-23T00:12:13;101611.88;;;14.90;97.92
52839;BME280;39219;53.678;9.856;2022-07-23T00:14:40;101597.44;;;14.96;97.15
52839;BME280;39219;53.678;9.856;2022-07-23T00:17:06;101601.78;;;15.00;96.66
52839;BME280;39219;53.678;9.856;2022-07-23T00:19:33;101600.75;;;15.06;96.05
52839;BME280;39219;53.678;9.856;2022-07-23T00:22:01;101595.38;;;15.06;96.30
52839;BME280;39219;53.678;9.856;2022-07-23T00:24:27;101596.06;;;15.13;95.56
52839;BME280;39219;53.678;9.856;2022-07-23T00:26:54;101603.19;;;15.14;95.22
52839;BME280;39219;53.678;9.856;2022-07-23T00:29:20;101601.34;;;15.16;94.69
52839;BME280;39219;53.678;9.856;2022-07-23T00:31:47;101600.41;;;15.17;95.02
52839;BME280;39219;53.678;9.856;2022-07-23T00:34:13;101596.78;;;15.19;94.86
52839;BME280;39219;53.678;9.856;2022-07-23T00:36:40;101591.56;;;15.15;95.24
52839;BME280;39219;53.678;9.856;2022-07-23T00:39:07;101593.19;;;15.20;94.95
52839;BME280;39219;53.678;9.856;2022-07-23T00:41:34;101594.06;;;15.21;94.22
52839;BME280;39219;53.678;9.856;2022-07-23T00:44:14;101588.03;;;15.14;94.18
52839;BME280;39219;53.678;9.856;2022-07-23T00:46:45;101589.78;;;15.15;95.06
52839;BME280;39219;53.678;9.856;2022-07-23T00:49:12;101584.53;;;15.10;95.45
52839;BME280;39219;53.678;9.856;2022-07-23T00:51:38;101586.38;;;15.08;95.48
52839;BME280;39219;53.678;9.856;2022-07-23T00:54:05;101577.59;;;15.05;95.50
52839;BME280;39219;53.678;9.856;2022-07-23T00:56:33;101585.63;;;15.05;96.22
52839;BME280;39219;53.678;9.856;2022-07-23T00:59:00;101581.09;;;15.07;95.87
52839;BME280;39219;53.678;9.856;2022-07-23T01:01:27;101580.25;;;15.05;95.93
52839;BME280;39219;53.678;9.856;2022-07-23T01:03:53;101584.03;;;14.98;95.86
52839;BME280;39219;53.678;9.856;2022-07-23T01:06:20;101577.28;;;14.84;96.27
52839;BME280;39219;53.678;9.856;2022-07-23T01:08:46;101579.28;;;14.76;97.46
52839;BME280;39219;53.678;9.856;2022-07-23T01:11:13;101567.84;;;14.71;98.16
52839;BME280;39219;53.678;9.856;2022-07-23T01:13:42;101567.19;;;14.61;98.68
52839;BME280;39219;53.678;9.856;2022-07-23T01:16:08;101566.56;;;14.51;99.21
52839;BME280;39219;53.678;9.856;2022-07-23T01:18:35;101561.41;;;14.43;100.00
52839;BME280;39219;53.678;9.856;2022-07-23T01:21:02;101563.66;;;14.26;100.00
52839;BME280;39219;53.678;9.856;2022-07-23T01:23:29;101560.25;;;14.20;100.00
52839;BME280;39219;53.678;9.856;2022-07-23T01:25:56;101567.38;;;14.20;100.00
52839;BME280;39219;53.678;9.856;2022-07-23T01:28:23;101563.31;;;14.05;100.00
52839;BME280;39219;53.678;9.856;2022-07-23T01:30:49;101553.72;;;13.96;100.00
52839;BME280;39219;53.678;9.856;2022-07-23T01:33:16;101554.59;;;13.97;100.00
52839;BME280;39219;53.678;9.856;2022-07-23T01:35:42;101562.97;;;13.83;100.00
52839;BME280;39219;53.678;9.856;2022-07-23T01:38:09;101556.66;;;13.85;100.00
52839;BME280;39219;53.678;9.856;2022-07-23T01:40:36;101549.53;;;13.86;100.00
52839;BME280;39219;53.678;9.856;2022-07-23T01:43:03;101547.78;;;13.85;100.00
52839;BME280;39219;53.678;9.856;2022-07-23T01:45:29;101546.03;;;13.84;100.00
52839;BME280;39219;53.678;9.856;2022-07-23T01:47:56;101546.09;;;13.81;100.00
52839;BME280;39219;53.678;9.856;2022-07-23T01:50:22;101556.72;;;13.84;100.00
52839;BME280;39219;53.678;9.856;2022-07-23T01:52:49;101564.59;;;13.88;100.00
52839;BME280;39219;53.678;9.856;2022-07-23T01:55:15;101550.94;;;14.01;100.00
52839;BME280;39219;53.678;9.856;2022-07-23T01:57:43;101549.03;;;14.06;100.00
52839;BME280;39219;53.678;9.856;2022-07-23T02:00:11;101544.47;;;14.11;100.00
52839;BME280;39219;53.678;9.856;2022-07-23T02:02:37;101548.00;;;14.12;100.00
52839;BME280;39219;53.678;9.856;2022-07-23T02:05:05;101546.97;;;14.17;100.00
52839;BME280;39219;53.678;9.856;2022-07-23T02:07:31;101536.16;;;14.22;100.00
52839;BME280;39219;53.678;9.856;2022-07-23T02:09:58;101529.81;;;14.26;100.00
52839;BME280;39219;53.678;9.856;2022-07-23T02:12:24;101529.59;;;14.34;100.00
52839;BME280;39219;53.678;9.856;2022-07-23T02:14:52;101524.00;;;14.43;100.00
52839;BME280;39219;53.678;9.856;2022-07-23T02:17:18;101525.75;;;14.46;100.00
52839;BME280;39219;53.678;9.856;2022-07-23T02:19:45;101521.97;;;14.53;100.00
52839;BME280;39219;53.678;9.856;2022-07-23T02:22:11;101513.75;;;14.59;100.00
52839;BME280;39219;53.678;9.856;2022-07-23T02:24:38;101511.97;;;14.60;100.00
52839;BME280;39219;53.678;9.856;2022-07-23T02:27:04;101512.00;;;14.58;100.00
52839;BME280;39219;53.678;9.856;2022-07-23T02:29:31;101508.69;;;14.50;100.00
52839;BME280;39219;53.678;9.856;2022-07-23T02:31:59;101505.13;;;14.49;100.00
52839;BME280;39219;53.678;9.856;2022-07-23T02:34:25;101505.97;;;14.51;100.00
52839;BME280;39219;53.678;9.856;2022-07-23T02:36:52;101505.94;;;14.53;100.00
52839;BME280;39219;53.678;9.856;2022-07-23T02:39:18;101498.88;;;14.50;100.00
52839;BME280;39219;53.678;9.856;2022-07-23T02:41:44;101509.56;;;14.50;100.00
52839;BME280;39219;53.678;9.856;2022-07-23T02:44:11;101508.63;;;14.53;100.00
52839;BME280;39219;53.678;9.856;2022-07-23T02:46:37;101513.75;;;14.59;100.00
52839;BME280;39219;53.678;9.856;2022-07-23T02:49:05;101512.81;;;14.62;100.00
52839;BME280;39219;53.678;9.856;2022-07-23T02:51:32;101510.00;;;14.66;100.00
52839;BME280;39219;53.678;9.856;2022-07-23T02:53:58;101512.63;;;14.70;100.00
52839;BME280;39219;53.678;9.856;2022-07-23T02:56:25;101516.88;;;14.77;100.00
52839;BME280;39219;53.678;9.856;2022-07-23T02:58:51;101512.41;;;14.77;100.00
52839;BME280;39219;53.678;9.856;2022-07-23T03:01:18;101512.34;;;14.79;100.00
52839;BME280;39219;53.678;9.856;2022-07-23T03:03:44;101518.59;;;14.79;100.00
52839;BME280;39219;53.678;9.856;2022-07-23T03:06:12;101512.16;;;14.87;100.00
52839;BME280;39219;53.678;9.856;2022-07-23T03:08:39;101505.88;;;14.88;100.00
52839;BME280;39219;53.678;9.856;2022-07-23T03:11:05;101513.84;;;14.89;100.00
52839;BME280;39219;53.678;9.856;2022-07-23T03:13:36;101505.91;;;14.86;100.00
52839;BME280;39219;53.678;9.856;2022-07-23T03:16:02;101498.88;;;14.84;100.00
52839;BME280;39219;53.678;9.856;2022-07-23T03:18:29;101503.31;;;14.83;100.00
52839;BME280;39219;53.678;9.856;2022-07-23T03:20:56;101494.38;;;14.84;100.00
52839;BME280;39219;53.678;9.856;2022-07-23T03:23:24;101506.94;;;14.82;100.00
52839;BME280;39219;53.678;9.856;2022-07-23T03:25:50;101497.16;;;14.81;100.00
52839;BME280;39219;53.678;9.856;2022-07-23T03:28:17;101506.97;;;14.80;100.00
52839;BME280;39219;53.678;9.856;2022-07-23T03:30:44;101506.84;;;14.85;100.00
52839;BME280;39219;53.678;9.856;2022-07-23T03:33:11;101510.44;;;14.84;100.00
52839;BME280;39219;53.678;9.856;2022-07-23T03:35:38;101503.38;;;14.82;100.00
52839;BME280;39219;53.678;9.856;2022-07-23T03:38:04;101505.25;;;14.78;100.00
52839;BME280;39219;53.678;9.856;2022-07-23T03:40:32;101498.31;;;14.72;100.00
52839;BME280;39219;53.678;9.856;2022-07-23T03:42:59;101499.81;;;14.81;100.00
52839;BME280;39219;53.678;9.856;2022-07-23T03:45:25;101492.59;;;14.85;100.00
52839;BME280;39219;53.678;9.856;2022-07-23T03:47:52;101496.81;;;14.92;100.00
52839;BME280;39219;53.678;9.856;2022-07-23T03:50:19;101499.41;;;14.95;100.00
52839;BME280;39219;53.678;9.856;2022-07-23T03:52:45;101496.53;;;15.01;100.00
52839;BME280;39219;53.678;9.856;2022-07-23T03:55:12;101484.75;;;15.08;100.00
52839;BME280;39219;53.678;9.856;2022-07-23T03:57:40;101484.53;;;15.16;99.92
52839;BME280;39219;53.678;9.856;2022-07-23T04:00:08;101492.31;;;15.24;97.84
52839;BME280;39219;53.678;9.856;2022-07-23T04:02:36;101491.91;;;15.36;97.67
52839;BME280;39219;53.678;9.856;2022-07-23T04:05:03;101496.00;;;15.48;97.08
52839;BME280;39219;53.678;9.856;2022-07-23T04:07:30;101507.03;;;15.66;96.82
52839;BME280;39219;53.678;9.856;2022-07-23T04:09:57;101509.31;;;15.78;95.76
52839;BME280;39219;53.678;9.856;2022-07-23T04:12:24;101511.72;;;15.88;95.08
52839;BME280;39219;53.678;9.856;2022-07-23T04:14:52;101509.69;;;15.94;94.14
52839;BME280;39219;53.678;9.856;2022-07-23T04:17:18;101514.50;;;15.83;93.50
52839;BME280;39219;53.678;9.856;2022-07-23T04:19:45;101519.91;;;15.81;93.98
52839;BME280;39219;53.678;9.856;2022-07-23T04:22:11;101519.84;;;15.83;93.33
52839;BME280;39219;53.678;9.856;2022-07-23T04:24:38;101524.47;;;15.78;91.92
52839;BME280;39219;53.678;9.856;2022-07-23T04:27:05;101530.94;;;15.72;93.21
52839;BME280;39219;53.678;9.856;2022-07-23T04:29:32;101535.56;;;15.67;92.93
52839;BME280;39219;53.678;9.856;2022-07-23T04:32:00;101537.22;;;15.43;94.42
52839;BME280;39219;53.678;9.856;2022-07-23T04:34:27;101537.63;;;15.29;96.34
52839;BME280;39219;53.678;9.856;2022-07-23T04:36:53;101536.94;;;15.22;96.51
52839;BME280;39219;53.678;9.856;2022-07-23T04:39:20;101524.31;;;15.27;96.48
52839;BME280;39219;53.678;9.856;2022-07-23T04:41:46;101528.69;;;15.30;95.84
52839;BME280;39219;53.678;9.856;2022-07-23T04:44:13;101522.09;;;15.12;96.22
52839;BME280;39219;53.678;9.856;2022-07-23T04:46:40;101510.91;;;14.99;96.55
52839;BME280;39219;53.678;9.856;2022-07-23T04:49:08;101518.38;;;14.87;97.54
52839;BME280;39219;53.678;9.856;2022-07-23T04:51:35;101513.84;;;14.89;96.98
52839;BME280;39219;53.678;9.856;2022-07-23T04:54:01;101512.75;;;14.97;97.55
52839;BME280;39219;53.678;9.856;2022-07-23T04:56:28;101514.75;;;14.88;97.69
52839;BME280;39219;53.678;9.856;2022-07-23T04:58:54;101512.78;;;14.95;98.04
52839;BME280;39219;53.678;9.856;2022-07-23T05:01:20;101512.00;;;14.91;98.67
52839;BME280;39219;53.678;9.856;2022-07-23T05:03:47;101514.59;;;14.94;97.88
52839;BME280;39219;53.678;9.856;2022-07-23T05:06:15;101515.34;;;14.98;98.73
52839;BME280;39219;53.678;9.856;2022-07-23T05:08:42;101515.28;;;15.01;98.07
52839;BME280;39219;53.678;9.856;2022-07-23T05:11:08;101522.47;;;14.99;98.14
52839;BME280;39219;53.678;9.856;2022-07-23T05:13:35;101525.19;;;14.98;98.25
52839;BME280;39219;53.678;9.856;2022-07-23T05:16:01;101528.63;;;15.03;97.65
52839;BME280;39219;53.678;9.856;2022-07-23T05:18:28;101525.03;;;15.04;97.51
52839;BME280;39219;53.678;9.856;2022-07-23T05:20:54;101523.44;;;14.97;97.66
52839;BME280;39219;53.678;9.856;2022-07-23T05:23:22;101524.31;;;14.97;97.06
52839;BME280;39219;53.678;9.856;2022-07-23T05:25:49;101522.19;;;15.08;97.02
52839;BME280;39219;53.678;9.856;2022-07-23T05:28:16;101526.44;;;15.16;96.83
52839;BME280;39219;53.678;9.856;2022-07-23T05:30:42;101527.31;;;15.16;95.79
52839;BME280;39219;53.678;9.856;2022-07-23T05:33:09;101532.72;;;15.15;96.33
52839;BME280;39219;53.678;9.856;2022-07-23T05:35:35;101534.38;;;15.19;95.78
52839;BME280;39219;53.678;9.856;2022-07-23T05:38:02;101538.31;;;15.05;95.85
52839;BME280;39219;53.678;9.856;2022-07-23T05:40:30;101543.56;;;15.10;96.17
52839;BME280;39219;53.678;9.856;2022-07-23T05:42:58;101536.31;;;15.14;95.42
52839;BME280;39219;53.678;9.856;2022-07-23T05:45:24;101538.94;;;15.15;95.74
52839;BME280;39219;53.678;9.856;2022-07-23T05:47:51;101559.00;;;15.30;96.10
52839;BME280;39219;53.678;9.856;2022-07-23T05:50:17;101547.19;;;15.37;95.78
52839;BME280;39219;53.678;9.856;2022-07-23T05:52:44;101556.97;;;15.38;95.57
52839;BME280;39219;53.678;9.856;2022-07-23T05:55:11;101554.41;;;15.34;95.73
52839;BME280;39219;53.678;9.856;2022-07-23T05:57:40;101543.59;;;15.38;95.46
52839;BME280;39219;53.678;9.856;2022-07-23T06:00:08;101548.41;;;15.55;95.29
52839;BME280;39219;53.678;9.856;2022-07-23T06:02:35;101551.31;;;15.76;95.20
52839;BME280;39219;53.678;9.856;2022-07-23T06:05:03;101552.16;;;15.78;93.41
52839;BME280;39219;53.678;9.856;2022-07-23T06:07:30;101549.56;;;15.75;94.25
52839;BME280;39219;53.678;9.856;2022-07-23T06:09:56;101553.28;;;15.71;94.86
52839;BME280;39219;53.678;9.856;2022-07-23T06:12:23;101551.03;;;15.86;94.62
52839;BME280;39219;53.678;9.856;2022-07-23T06:14:52;101558.88;;;16.19;93.93
52839;BME280;39219;53.678;9.856;2022-07-23T06:17:19;101558.13;;;16.15;93.42
52839;BME280;39219;53.678;9.856;2022-07-23T06:19:45;101555.78;;;16.56;91.79
52839;BME280;39219;53.678;9.856;2022-07-23T06:22:12;101560.94;;;17.12;88.47
52839;BME280;39219;53.678;9.856;2022-07-23T06:24:38;101552.72;;;17.16;84.60
52839;BME280;39219;53.678;9.856;2022-07-23T06:27:05;101558.19;;;17.13;84.53
52839;BME280;39219;53.678;9.856;2022-07-23T06:29:31;101557.72;;;17.26;86.35
52839;BME280;39219;53.678;9.856;2022-07-23T06:31:59;101561.31;;;17.49;84.66
52839;BME280;39219;53.678;9.856;2022-07-23T06:34:25;101560.31;;;17.51;82.42
52839;BME280;39219;53.678;9.856;2022-07-23T06:36:52;101566.69;;;17.49;82.54
52839;BME280;39219;53.678;9.856;2022-07-23T06:39:18;101566.75;;;17.69;83.59
52839;BME280;39219;53.678;9.856;2022-07-23T06:41:45;101569.28;;;17.74;80.79
52839;BME280;39219;53.678;9.856;2022-07-23T06:44:11;101563.91;;;17.74;81.46
52839;BME280;39219;53.678;9.856;2022-07-23T06:46:38;101575.91;;;17.87;82.27
52839;BME280;39219;53.678;9.856;2022-07-23T06:49:06;101573.53;;;17.56;82.55
52839;BME280;39219;53.678;9.856;2022-07-23T06:51:32;101567.25;;;17.11;88.96
52839;BME280;39219;53.678;9.856;2022-07-23T06:53:59;101566.81;;;16.22;94.94
52839;BME280;39219;53.678;9.856;2022-07-23T06:56:25;101567.63;;;16.51;95.65
52839;BME280;39219;53.678;9.856;2022-07-23T06:58:52;101571.00;;;16.56;93.44
52839;BME280;39219;53.678;9.856;2022-07-23T07:01:18;101580.56;;;16.38;92.71
52839;BME280;39219;53.678;9.856;2022-07-23T07:03:45;101577.13;;;16.60;93.54
52839;BME280;39219;53.678;9.856;2022-07-23T07:06:13;101576.28;;;16.83;91.23
52839;BME280;39219;53.678;9.856;2022-07-23T07:08:40;101579.06;;;17.05;89.45
52839;BME280;39219;53.678;9.856;2022-07-23T07:11:08;101581.41;;;17.14;88.29
52839;BME280;39219;53.678;9.856;2022-07-23T07:13:34;101581.06;;;16.75;90.62
52839;BME280;39219;53.678;9.856;2022-07-23T07:16:01;101578.19;;;16.28;93.42
52839;BME280;39219;53.678;9.856;2022-07-23T07:18:28;101588.56;;;16.12;96.39
52839;BME280;39219;53.678;9.856;2022-07-23T07:20:54;101597.72;;;16.32;96.33
52839;BME280;39219;53.678;9.856;2022-07-23T07:23:22;101590.84;;;16.50;95.15
52839;BME280;39219;53.678;9.856;2022-07-23T07:25:49;101591.97;;;16.70;94.47
52839;BME280;39219;53.678;9.856;2022-07-23T07:28:15;101582.97;;;16.71;93.27
52839;BME280;39219;53.678;9.856;2022-07-23T07:30:42;101594.13;;;16.58;93.50
52839;BME280;39219;53.678;9.856;2022-07-23T07:33:08;101584.84;;;16.69;95.21
52839;BME280;39219;53.678;9.856;2022-07-23T07:35:35;101584.75;;;16.97;93.46
52839;BME280;39219;53.678;9.856;2022-07-23T07:38:01;101589.59;;;17.35;89.75
52839;BME280;39219;53.678;9.856;2022-07-23T07:40:29;101586.44;;;17.70;86.97
52839;BME280;39219;53.678;9.856;2022-07-23T07:42:56;101590.44;;;18.47;83.71
52839;BME280;39219;53.678;9.856;2022-07-23T07:45:23;101591.25;;;19.49;79.09
52839;BME280;39219;53.678;9.856;2022-07-23T07:47:50;101598.84;;;19.97;72.07
52839;BME280;39219;53.678;9.856;2022-07-23T07:50:18;101584.38;;;19.23;73.50
52839;BME280;39219;53.678;9.856;2022-07-23T07:52:44;101591.59;;;19.03;73.71
52839;BME280;39219;53.678;9.856;2022-07-23T07:55:11;101594.56;;;19.74;71.84
52839;BME280;39219;53.678;9.856;2022-07-23T07:57:40;101601.13;;;19.49;72.63
52839;BME280;39219;53.678;9.856;2022-07-23T08:00:09;101595.22;;;19.60;74.22
52839;BME280;39219;53.678;9.856;2022-07-23T08:02:43;101597.16;;;18.37;78.63
52839;BME280;39219;53.678;9.856;2022-07-23T08:05:10;101588.50;;;18.30;79.45
52839;BME280;39219;53.678;9.856;2022-07-23T08:07:37;101583.19;;;17.84;82.07
52839;BME280;39219;53.678;9.856;2022-07-23T08:10:05;101593.31;;;18.22;81.62
52839;BME280;39219;53.678;9.856;2022-07-23T08:12:39;101591.31;;;19.09;79.61
52839;BME280;39219;53.678;9.856;2022-07-23T08:15:07;101592.63;;;19.58;73.46
52839;BME280;39219;53.678;9.856;2022-07-23T08:17:34;101596.31;;;19.56;73.59
52839;BME280;39219;53.678;9.856;2022-07-23T08:20:00;101595.59;;;18.93;76.28
52839;BME280;39219;53.678;9.856;2022-07-23T08:22:41;101601.50;;;19.60;74.01
52839;BME280;39219;53.678;9.856;2022-07-23T08:25:08;101613.06;;;21.06;71.36
52839;BME280;39219;53.678;9.856;2022-07-23T08:27:34;101603.91;;;21.91;65.29
52839;BME280;39219;53.678;9.856;2022-07-23T08:30:03;101605.72;;;22.06;62.36
52839;BME280;39219;53.678;9.856;2022-07-23T08:32:30;101604.31;;;20.85;66.25
52839;BME280;39219;53.678;9.856;2022-07-23T08:34:56;101590.22;;;19.52;72.82
52839;BME280;39219;53.678;9.856;2022-07-23T08:37:23;101592.63;;;19.58;74.27
52839;BME280;39219;53.678;9.856;2022-07-23T08:39:49;101599.34;;;20.05;71.96
52839;BME280;39219;53.678;9.856;2022-07-23T08:42:16;101604.00;;;20.02;71.82
52839;BME280;39219;53.678;9.856;2022-07-23T08:44:44;101596.59;;;20.24;68.37
52839;BME280;39219;53.678;9.856;2022-07-23T08:47:14;101594.44;;;20.31;71.04
52839;BME280;39219;53.678;9.856;2022-07-23T08:49:41;101603.69;;;21.45;64.30
52839;BME280;39219;53.678;9.856;2022-07-23T08:52:08;101598.69;;;22.79;62.13
52839;BME280;39219;53.678;9.856;2022-07-23T08:54:34;101601.88;;;24.40;56.07
52839;BME280;39219;53.678;9.856;2022-07-23T08:57:01;101606.06;;;24.32;52.12
52839;BME280;39219;53.678;9.856;2022-07-23T08:59:29;101607.72;;;25.88;51.34
52839;BME280;39219;53.678;9.856;2022-07-23T09:01:57;101595.06;;;25.12;51.86
52839;BME280;39219;53.678;9.856;2022-07-23T09:04:26;101610.38;;;24.75;50.41
52839;BME280;39219;53.678;9.856;2022-07-23T09:06:55;101603.97;;;24.76;51.21
52839;BME280;39219;53.678;9.856;2022-07-23T09:09:22;101600.41;;;24.88;50.41
52839;BME280;39219;53.678;9.856;2022-07-23T09:12:02;101592.31;;;24.07;51.09
52839;BME280;39219;53.678;9.856;2022-07-23T09:14:36;101597.97;;;24.45;51.00
52839;BME280;39219;53.678;9.856;2022-07-23T09:17:09;101607.50;;;24.37;49.71
52839;BME280;39219;53.678;9.856;2022-07-23T09:19:37;101600.91;;;24.67;51.34
52839;BME280;39219;53.678;9.856;2022-07-23T09:22:23;101613.00;;;23.54;54.25
52839;BME280;39219;53.678;9.856;2022-07-23T09:25:07;101610.84;;;22.11;57.07
52839;BME280;39219;53.678;9.856;2022-07-23T09:27:49;101602.47;;;21.99;56.68
52839;BME280;39219;53.678;9.856;2022-07-23T09:30:18;101608.88;;;21.50;59.23
52839;BME280;39219;53.678;9.856;2022-07-23T09:32:44;101606.53;;;21.10;62.04
52839;BME280;39219;53.678;9.856;2022-07-23T09:35:43;101607.94;;;20.66;63.18
52839;BME280;39219;53.678;9.856;2022-07-23T09:38:09;101617.22;;;20.25;65.50
52839;BME280;39219;53.678;9.856;2022-07-23T09:40:36;101616.84;;;19.96;69.57
52839;BME280;39219;53.678;9.856;2022-07-23T09:43:03;101624.13;;;19.56;67.63
52839;BME280;39219;53.678;9.856;2022-07-23T09:45:29;101622.41;;;19.55;69.01
52839;BME280;39219;53.678;9.856;2022-07-23T09:48:09;101627.94;;;19.33;67.58
52839;BME280;39219;53.678;9.856;2022-07-23T09:50:38;101623.97;;;19.78;67.56
52839;BME280;39219;53.678;9.856;2022-07-23T09:53:04;101624.06;;;19.96;66.04
52839;BME280;39219;53.678;9.856;2022-07-23T09:55:32;101624.75;;;20.19;63.13
52839;BME280;39219;53.678;9.856;2022-07-23T09:58:02;101620.53;;;20.31;63.17
52839;BME280;39219;53.678;9.856;2022-07-23T10:00:29;101630.22;;;20.70;62.79
52839;BME280;39219;53.678;9.856;2022-07-23T10:02:57;101630.94;;;20.91;60.93
52839;BME280;39219;53.678;9.856;2022-07-23T10:05:25;101628.41;;;21.22;61.85
52839;BME280;39219;53.678;9.856;2022-07-23T10:07:54;101625.69;;;20.35;61.54
52839;BME280;39219;53.678;9.856;2022-07-23T10:10:21;101629.97;;;20.92;61.06
52839;BME280;39219;53.678;9.856;2022-07-23T10:12:48;101620.25;;;21.55;59.65
52839;BME280;39219;53.678;9.856;2022-07-23T10:15:41;101621.34;;;21.69;58.90
52839;BME280;39219;53.678;9.856;2022-07-23T10:18:10;101619.28;;;21.40;57.19
52839;BME280;39219;53.678;9.856;2022-07-23T10:20:36;101633.66;;;20.74;59.55
52839;BME280;39219;53.678;9.856;2022-07-23T10:23:11;101639.50;;;20.11;62.94
52839;BME280;39219;53.678;9.856;2022-07-23T10:25:46;101638.91;;;19.86;65.74
52839;BME280;39219;53.678;9.856;2022-07-23T10:31:20;101634.97;;;19.54;68.43
52839;BME280;39219;53.678;9.856;2022-07-23T10:33:56;101630.69;;;19.70;68.94
52839;BME280;39219;53.678;9.856;2022-07-23T10:36:28;101644.13;;;20.08;67.27
52839;BME280;39219;53.678;9.856;2022-07-23T10:39:04;101640.56;;;20.97;64.36
52839;BME280;39219;53.678;9.856;2022-07-23T10:41:31;101646.28;;;21.74;61.15
52839;BME280;39219;53.678;9.856;2022-07-23T10:44:06;101637.97;;;22.25;58.53
52839;BME280;39219;53.678;9.856;2022-07-23T10:46:32;101646.03;;;22.41;58.27
52839;BME280;39219;53.678;9.856;2022-07-23T10:49:24;101655.16;;;22.24;57.46
52839;BME280;39219;53.678;9.856;2022-07-23T10:52:16;101654.50;;;21.72;58.11
52839;BME280;39219;53.678;9.856;2022-07-23T10:54:46;101646.25;;;21.58;58.73
52839;BME280;39219;53.678;9.856;2022-07-23T10:57:15;101648.06;;;21.57;57.55
52839;BME280;39219;53.678;9.856;2022-07-23T11:00:12;101655.00;;;21.95;55.53
52839;BME280;39219;53.678;9.856;2022-07-23T11:02:40;101650.09;;;22.18;54.37
52839;BME280;39219;53.678;9.856;2022-07-23T11:05:09;101642.75;;;22.67;55.46
52839;BME280;39219;53.678;9.856;2022-07-23T11:07:36;101646.84;;;22.88;52.99
52839;BME280;39219;53.678;9.856;2022-07-23T11:10:05;101654.22;;;22.56;53.75
52839;BME280;39219;53.678;9.856;2022-07-23T11:12:35;101657.94;;;22.23;55.58
52839;BME280;39219;53.678;9.856;2022-07-23T11:15:05;101657.63;;;21.31;57.72
52839;BME280;39219;53.678;9.856;2022-07-23T11:17:33;101667.72;;;20.94;58.57
52839;BME280;39219;53.678;9.856;2022-07-23T11:20:14;101668.66;;;21.60;58.48
52839;BME280;39219;53.678;9.856;2022-07-23T11:22:47;101661.81;;;22.18;54.91
52839;BME280;39219;53.678;9.856;2022-07-23T11:25:33;101666.59;;;21.97;55.26
52839;BME280;39219;53.678;9.856;2022-07-23T11:28:11;101663.56;;;21.71;56.97
52839;BME280;39219;53.678;9.856;2022-07-23T11:30:41;101657.00;;;21.92;55.32
52839;BME280;39219;53.678;9.856;2022-07-23T11:33:21;101662.84;;;22.00;55.35
52839;BME280;39219;53.678;9.856;2022-07-23T11:35:51;101657.59;;;22.59;53.36
52839;BME280;39219;53.678;9.856;2022-07-23T11:38:27;101654.09;;;22.88;51.78
52839;BME280;39219;53.678;9.856;2022-07-23T11:40:55;101655.38;;;22.97;53.35
52839;BME280;39219;53.678;9.856;2022-07-23T11:43:23;101658.03;;;23.42;52.72
52839;BME280;39219;53.678;9.856;2022-07-23T11:45:51;101663.25;;;23.45;50.36
52839;BME280;39219;53.678;9.856;2022-07-23T11:48:19;101666.06;;;23.29;51.53
52839;BME280;39219;53.678;9.856;2022-07-23T11:50:47;101659.94;;;23.11;51.36
52839;BME280;39219;53.678;9.856;2022-07-23T11:53:13;101661.78;;;23.25;52.25
52839;BME280;39219;53.678;9.856;2022-07-23T11:55:40;101662.28;;;23.46;52.58
52839;BME280;39219;53.678;9.856;2022-07-23T11:58:08;101667.13;;;23.26;51.82
52839;BME280;39219;53.678;9.856;2022-07-23T12:00:34;101657.91;;;23.00;50.34
52839;BME280;39219;53.678;9.856;2022-07-23T12:03:02;101660.38;;;22.88;52.24
52839;BME280;39219;53.678;9.856;2022-07-23T12:05:31;101671.41;;;22.85;50.82
52839;BME280;39219;53.678;9.856;2022-07-23T12:07:59;101670.41;;;22.72;51.50
52839;BME280;39219;53.678;9.856;2022-07-23T12:10:28;101665.50;;;22.78;51.47
52839;BME280;39219;53.678;9.856;2022-07-23T12:12:56;101668.81;;;23.13;51.30
52839;BME280;39219;53.678;9.856;2022-07-23T12:15:26;101670.91;;;23.38;51.04
52839;BME280;39219;53.678;9.856;2022-07-23T12:17:54;101662.16;;;23.04;50.90
52839;BME280;39219;53.678;9.856;2022-07-23T12:20:23;101672.28;;;23.00;50.29
52839;BME280;39219;53.678;9.856;2022-07-23T12:22:52;101674.72;;;22.90;51.42
52839;BME280;39219;53.678;9.856;2022-07-23T12:25:20;101674.53;;;22.93;51.11
52839;BME280;39219;53.678;9.856;2022-07-23T12:27:58;101675.72;;;23.33;47.52
52839;BME280;39219;53.678;9.856;2022-07-23T12:30:28;101672.16;;;23.47;49.49
52839;BME280;39219;53.678;9.856;2022-07-23T12:32:57;101670.13;;;23.36;49.81
52839;BME280;39219;53.678;9.856;2022-07-23T12:35:31;101681.16;;;23.47;48.95
52839;BME280;39219;53.678;9.856;2022-07-23T12:38:00;101675.94;;;23.59;49.41
52839;BME280;39219;53.678;9.856;2022-07-23T12:40:28;101675.44;;;23.52;47.89
52839;BME280;39219;53.678;9.856;2022-07-23T12:42:57;101662.75;;;23.52;50.25
52839;BME280;39219;53.678;9.856;2022-07-23T12:45:27;101671.59;;;23.27;47.84
52839;BME280;39219;53.678;9.856;2022-07-23T12:48:02;101671.41;;;22.85;48.08
52839;BME280;39219;53.678;9.856;2022-07-23T12:50:42;101678.44;;;22.73;49.38
52839;BME280;39219;53.678;9.856;2022-07-23T12:53:12;101678.16;;;22.78;49.82
52839;BME280;39219;53.678;9.856;2022-07-23T12:55:40;101681.38;;;22.99;48.32
52839;BME280;39219;53.678;9.856;2022-07-23T12:58:09;101683.91;;;23.02;48.19